createdAt,value
2018-05-29T00:00:59.138Z,26.25
2018-05-29T00:03:26.529Z,26.11
2018-05-29T00:05:53.970Z,25.80
2018-05-29T00:08:21.361Z,25.89
2018-05-29T00:10:48.735Z,26.08
2018-05-29T00:13:16.120Z,26.02
2018-05-29T00:15:43.498Z,26.00
2018-05-29T00:18:10.881Z,25.76
2018-05-29T00:20:38.271Z,25.82
2018-05-29T00:23:05.661Z,25.78
2018-05-29T00:25:33.046Z,26.11
2018-05-29T00:28:00.434Z,26.02
2018-05-29T00:30:27.834Z,26.04
2018-05-29T00:32:55.215Z,25.90
2018-05-29T00:35:22.604Z,25.89
2018-05-29T00:37:49.987Z,25.73
2018-05-29T00:40:17.367Z,25.79
2018-05-29T00:42:44.755Z,25.65
2018-05-29T00:45:12.144Z,25.80
2018-05-29T00:47:39.573Z,25.67
2018-05-29T00:50:06.974Z,25.65
2018-05-29T00:52:34.383Z,25.72
2018-05-29T00:55:14.050Z,25.62
2018-05-29T00:57:41.498Z,25.57
2018-05-29T01:00:08.895Z,25.54
2018-05-29T01:02:36.291Z,25.61
2018-05-29T01:05:03.665Z,25.61
2018-05-29T01:07:31.057Z,25.64
2018-05-29T01:09:58.452Z,25.39
2018-05-29T01:12:25.814Z,25.39
2018-05-29T01:14:53.199Z,25.58
2018-05-29T01:17:20.588Z,25.40
2018-05-29T01:19:47.967Z,25.41
2018-05-29T01:22:15.355Z,25.33
2018-05-29T01:24:42.735Z,25.39
2018-05-29T01:27:10.114Z,25.27
2018-05-29T01:29:37.496Z,25.28
2018-05-29T01:32:04.883Z,25.20
2018-05-29T01:34:32.263Z,25.27
2018-05-29T01:36:59.720Z,25.24
2018-05-29T01:39:27.122Z,25.08
2018-05-29T01:41:54.537Z,24.96
2018-05-29T01:44:21.914Z,24.91
2018-05-29T01:46:49.570Z,24.95
2018-05-29T01:49:16.949Z,24.82
2018-05-29T01:51:44.435Z,25.04
2018-05-29T01:54:11.807Z,25.15
2018-05-29T01:56:39.345Z,25.01
2018-05-29T01:59:06.946Z,25.10
2018-05-29T02:01:34.509Z,24.91
2018-05-29T02:04:01.953Z,25.02
2018-05-29T02:06:29.359Z,24.81
2018-05-29T02:08:56.723Z,24.97
2018-05-29T02:11:24.685Z,24.95
2018-05-29T02:13:52.072Z,25.03
2018-05-29T02:16:19.439Z,24.97
2018-05-29T02:18:46.818Z,25.09
2018-05-29T02:21:14.195Z,24.95
2018-05-29T02:23:41.589Z,24.87
2018-05-29T02:26:08.984Z,24.85
2018-05-29T02:28:36.358Z,24.67
2018-05-29T02:31:03.748Z,24.59
2018-05-29T02:33:31.143Z,24.88
2018-05-29T02:35:58.534Z,24.70
2018-05-29T02:38:25.923Z,24.57
2018-05-29T02:40:53.373Z,24.46
2018-05-29T02:43:20.782Z,24.44
2018-05-29T02:45:48.159Z,24.47
2018-05-29T02:48:15.554Z,24.47
2018-05-29T02:50:42.939Z,24.47
2018-05-29T02:53:10.326Z,24.37
2018-05-29T02:55:37.719Z,24.40
2018-05-29T02:58:05.119Z,24.46
2018-05-29T03:00:32.494Z,24.08
2018-05-29T03:02:59.888Z,23.93
2018-05-29T03:05:27.270Z,24.12
2018-05-29T03:07:55.007Z,23.98
2018-05-29T03:10:22.367Z,24.06
2018-05-29T03:12:49.766Z,24.03
2018-05-29T03:15:17.146Z,23.96
2018-05-29T03:17:44.555Z,23.96
2018-05-29T03:20:11.943Z,24.08
2018-05-29T03:22:40.144Z,24.09
2018-05-29T03:25:07.535Z,23.99
2018-05-29T03:27:34.927Z,23.86
2018-05-29T03:30:02.318Z,23.94
2018-05-29T03:32:29.706Z,23.77
2018-05-29T03:34:57.089Z,23.83
2018-05-29T03:37:25.085Z,23.61
2018-05-29T03:39:52.488Z,22.85
2018-05-29T03:42:19.866Z,23.45
2018-05-29T03:44:47.238Z,23.73
2018-05-29T03:47:14.627Z,23.66
2018-05-29T03:49:42.010Z,23.89
2018-05-29T03:52:09.755Z,23.91
2018-05-29T03:54:37.187Z,23.60
2018-05-29T03:57:04.571Z,23.69
2018-05-29T03:59:31.967Z,23.64
2018-05-29T04:01:59.351Z,23.93
2018-05-29T04:04:26.897Z,24.02
2018-05-29T04:06:55.302Z,23.86
2018-05-29T04:09:22.719Z,23.84
2018-05-29T04:11:50.082Z,24.02
2018-05-29T04:14:17.523Z,24.18
2018-05-29T04:16:44.911Z,24.20
2018-05-29T04:19:12.295Z,23.88
2018-05-29T04:21:39.688Z,23.68
2018-05-29T04:24:07.075Z,23.72
2018-05-29T04:26:34.461Z,22.86
2018-05-29T04:29:01.863Z,23.79
2018-05-29T04:31:30.199Z,23.98
2018-05-29T04:33:57.578Z,23.75
2018-05-29T04:36:25.470Z,23.95
2018-05-29T04:38:52.854Z,24.26
2018-05-29T04:41:20.232Z,24.03
2018-05-29T04:43:47.626Z,23.80
2018-05-29T04:46:15.020Z,24.27
2018-05-29T04:48:42.417Z,24.44
2018-05-29T04:51:09.800Z,24.18
2018-05-29T04:53:37.258Z,24.36
2018-05-29T04:56:04.629Z,24.35
2018-05-29T04:58:32.031Z,24.46
2018-05-29T05:00:59.416Z,24.45
2018-05-29T05:03:26.802Z,23.88
2018-05-29T05:05:54.243Z,23.81
2018-05-29T05:08:21.643Z,23.51
2018-05-29T05:10:49.036Z,23.77
2018-05-29T05:13:16.444Z,24.35
2018-05-29T05:15:43.807Z,24.46
2018-05-29T05:18:11.221Z,24.55
2018-05-29T05:20:38.599Z,24.51
2018-05-29T05:23:05.987Z,24.56
2018-05-29T05:25:33.402Z,24.83
2018-05-29T05:28:00.787Z,24.77
2018-05-29T05:30:28.182Z,24.75
2018-05-29T05:32:55.659Z,24.30
2018-05-29T05:35:23.211Z,24.20
2018-05-29T05:37:50.587Z,24.06
2018-05-29T05:40:17.983Z,24.15
2018-05-29T05:42:45.371Z,24.24
2018-05-29T05:45:12.760Z,24.10
2018-05-29T05:47:40.536Z,23.97
2018-05-29T05:50:07.927Z,23.80
2018-05-29T05:52:35.394Z,23.79
2018-05-29T05:55:02.781Z,23.74
2018-05-29T05:57:30.166Z,23.93
2018-05-29T05:59:57.563Z,23.93
2018-05-29T06:02:25.857Z,23.62
2018-05-29T06:04:53.244Z,23.93
2018-05-29T06:07:20.623Z,24.03
2018-05-29T06:09:48.013Z,23.92
2018-05-29T06:12:15.399Z,23.89
2018-05-29T06:14:42.802Z,23.87
2018-05-29T06:17:10.204Z,23.87
2018-05-29T06:19:37.592Z,24.14
2018-05-29T06:22:04.972Z,24.31
2018-05-29T06:24:32.371Z,24.40
2018-05-29T06:26:59.755Z,24.75
2018-05-29T06:29:27.145Z,24.81
2018-05-29T06:31:54.522Z,24.85
2018-05-29T06:34:21.926Z,24.75
2018-05-29T06:36:49.299Z,24.64
2018-05-29T06:39:16.699Z,24.66
2018-05-29T06:41:44.331Z,25.09
2018-05-29T06:44:11.943Z,25.07
2018-05-29T06:46:39.576Z,25.03
2018-05-29T06:49:06.968Z,25.17
2018-05-29T06:51:34.351Z,24.83
2018-05-29T06:54:01.755Z,24.81
2018-05-29T06:56:29.135Z,24.42
2018-05-29T06:58:56.527Z,24.78
2018-05-29T07:01:23.916Z,24.44
2018-05-29T07:03:51.303Z,24.51
2018-05-29T07:06:18.691Z,24.71
2018-05-29T07:08:46.171Z,25.21
2018-05-29T07:11:13.543Z,25.41
2018-05-29T07:13:40.931Z,24.84
2018-05-29T07:16:08.318Z,24.93
2018-05-29T07:18:35.709Z,24.71
2018-05-29T07:21:03.097Z,24.58
2018-05-29T07:23:30.487Z,25.09
2018-05-29T07:25:58.463Z,25.04
2018-05-29T07:28:26.383Z,25.02
2018-05-29T07:30:53.772Z,24.95
2018-05-29T07:33:21.159Z,25.39
2018-05-29T07:35:48.548Z,25.39
2018-05-29T07:38:15.931Z,25.07
2018-05-29T07:40:43.327Z,25.01
2018-05-29T07:43:10.703Z,25.21
2018-05-29T07:45:38.115Z,25.36
2018-05-29T07:48:05.492Z,25.07
2018-05-29T07:50:32.888Z,25.47
2018-05-29T07:53:00.274Z,25.69
2018-05-29T07:55:27.659Z,25.72
2018-05-29T07:57:55.042Z,25.86
2018-05-29T08:00:22.435Z,25.68
2018-05-29T08:02:49.834Z,25.48
2018-05-29T08:05:17.290Z,25.89
2018-05-29T08:07:44.669Z,26.08
2018-05-29T08:10:12.081Z,26.04
2018-05-29T08:12:39.795Z,26.33
2018-05-29T08:15:07.191Z,26.25
2018-05-29T08:17:34.580Z,26.39
2018-05-29T08:20:01.991Z,26.26
2018-05-29T08:22:29.374Z,25.97
2018-05-29T08:24:58.725Z,25.88
2018-05-29T08:27:26.679Z,26.28
2018-05-29T08:29:54.242Z,26.27
2018-05-29T08:32:21.628Z,26.27
2018-05-29T08:34:49.019Z,26.24
2018-05-29T08:37:16.443Z,26.25
2018-05-29T08:39:43.892Z,26.63
2018-05-29T08:42:11.226Z,26.66
2018-05-29T08:44:38.611Z,26.75
2018-05-29T08:47:06.008Z,26.65
2018-05-29T08:49:33.396Z,26.32
2018-05-29T08:52:00.791Z,26.30
2018-05-29T08:54:29.184Z,26.54
2018-05-29T08:56:56.816Z,26.24
2018-05-29T08:59:24.215Z,26.41
2018-05-29T09:01:51.598Z,26.87
2018-05-29T09:04:19.118Z,26.88
2018-05-29T09:06:46.393Z,26.51
2018-05-29T09:09:13.786Z,26.76
2018-05-29T09:11:41.183Z,26.66
2018-05-29T09:14:08.560Z,26.99
2018-05-29T09:16:35.963Z,26.82
2018-05-29T09:19:03.358Z,27.13
2018-05-29T09:21:30.761Z,27.34
2018-05-29T09:23:58.126Z,27.34
2018-05-29T09:26:25.521Z,27.53
2018-05-29T09:28:52.995Z,27.47
2018-05-29T09:31:20.390Z,27.46
2018-05-29T09:33:47.771Z,27.63
2018-05-29T09:36:15.173Z,27.82
2018-05-29T09:38:42.559Z,27.80
2018-05-29T09:41:09.957Z,27.48
2018-05-29T09:43:37.339Z,27.67
2018-05-29T09:46:04.901Z,27.40
2018-05-29T09:48:32.282Z,27.26
2018-05-29T09:50:59.780Z,27.70
2018-05-29T09:53:27.165Z,27.67
2018-05-29T09:55:55.231Z,27.76
2018-05-29T09:58:22.625Z,27.54
2018-05-29T10:00:49.997Z,27.68
2018-05-29T10:03:17.426Z,27.93
2018-05-29T10:05:44.797Z,27.54
2018-05-29T10:08:12.199Z,27.83
2018-05-29T10:10:39.570Z,28.09
2018-05-29T10:13:06.973Z,28.07
2018-05-29T10:15:34.359Z,28.23
2018-05-29T10:18:01.755Z,28.12
2018-05-29T10:20:29.136Z,27.56
2018-05-29T10:22:57.237Z,27.63
2018-05-29T10:25:24.619Z,28.07
2018-05-29T10:27:52.499Z,28.43
2018-05-29T10:30:19.891Z,28.39
2018-05-29T10:32:47.293Z,28.28
2018-05-29T10:35:14.680Z,28.01
2018-05-29T10:37:42.059Z,28.57
2018-05-29T10:40:09.453Z,28.58
2018-05-29T10:42:36.849Z,28.84
2018-05-29T10:45:04.235Z,28.25
2018-05-29T10:47:31.671Z,28.41
2018-05-29T10:49:59.076Z,27.91
2018-05-29T10:52:27.409Z,28.59
2018-05-29T10:54:54.752Z,28.59
2018-05-29T10:57:22.143Z,28.63
2018-05-29T10:59:49.533Z,28.57
2018-05-29T11:02:16.920Z,28.33
2018-05-29T11:04:44.363Z,28.26
2018-05-29T11:07:11.794Z,28.01
2018-05-29T11:09:39.184Z,28.21
2018-05-29T11:12:06.594Z,28.03
2018-05-29T11:14:33.969Z,28.22
2018-05-29T11:17:01.373Z,28.07
2018-05-29T11:19:28.756Z,27.87
2018-05-29T11:24:25.152Z,27.85
2018-05-29T11:26:52.658Z,28.03
2018-05-29T11:29:20.057Z,28.87
2018-05-29T11:31:47.478Z,29.33
2018-05-29T11:34:14.866Z,29.64
2018-05-29T11:36:42.265Z,30.00
2018-05-29T11:39:09.987Z,30.53
2018-05-29T11:41:37.372Z,30.67
2018-05-29T11:44:04.890Z,30.93
2018-05-29T11:46:32.281Z,30.04
2018-05-29T11:48:59.672Z,29.43
2018-05-29T11:51:27.715Z,29.54
2018-05-29T11:53:55.115Z,30.16
2018-05-29T11:56:22.499Z,30.82
2018-05-29T11:58:49.898Z,30.72
2018-05-29T12:01:17.282Z,30.37
2018-05-29T12:03:44.675Z,30.99
2018-05-29T12:06:12.059Z,31.05
2018-05-29T12:08:39.452Z,30.50
2018-05-29T12:11:06.851Z,31.01
2018-05-29T12:13:34.237Z,30.88
2018-05-29T12:16:01.629Z,31.35
2018-05-29T12:18:29.025Z,30.81
2018-05-29T12:20:56.411Z,29.97
2018-05-29T12:23:23.799Z,30.87
2018-05-29T12:25:51.183Z,31.97
2018-05-29T12:28:19.601Z,32.51
2018-05-29T12:30:46.959Z,32.02
2018-05-29T12:33:14.340Z,31.50
2018-05-29T12:35:41.727Z,31.46
2018-05-29T12:38:09.102Z,31.81
2018-05-29T12:40:36.489Z,31.71
2018-05-29T12:43:03.879Z,32.18
2018-05-29T12:45:31.275Z,32.84
2018-05-29T12:47:58.669Z,32.56
2018-05-29T12:50:26.065Z,30.52
2018-05-29T12:52:53.437Z,30.26
2018-05-29T12:55:20.831Z,30.29
2018-05-29T12:57:48.261Z,30.26
2018-05-29T13:00:15.677Z,30.83
2018-05-29T13:02:43.051Z,30.94
2018-05-29T13:05:10.451Z,30.27
2018-05-29T13:07:37.830Z,30.13
2018-05-29T13:10:05.231Z,29.55
2018-05-29T13:12:32.614Z,30.15
2018-05-29T13:15:00.008Z,29.72
2018-05-29T13:17:27.949Z,29.49
2018-05-29T13:19:55.358Z,29.47
2018-05-29T13:22:22.731Z,31.09
2018-05-29T13:24:50.128Z,31.79
2018-05-29T13:27:17.516Z,32.08
2018-05-29T13:29:44.921Z,32.39
2018-05-29T13:32:12.286Z,32.09
2018-05-29T13:34:39.687Z,31.46
2018-05-29T13:37:07.074Z,30.64
2018-05-29T13:39:34.459Z,31.61
2018-05-29T13:42:01.844Z,30.62
2018-05-29T13:44:29.344Z,31.83
2018-05-29T13:46:56.732Z,31.14
2018-05-29T13:49:24.106Z,32.25
2018-05-29T13:51:51.488Z,31.70
2018-05-29T13:54:18.873Z,31.94
2018-05-29T13:56:46.257Z,32.09
2018-05-29T13:59:13.630Z,32.46
2018-05-29T14:01:41.010Z,31.18
2018-05-29T14:04:08.386Z,31.64
2018-05-29T14:06:35.777Z,31.71
2018-05-29T14:09:03.242Z,32.03
2018-05-29T14:11:30.595Z,30.85
2018-05-29T14:13:58.253Z,31.81
2018-05-29T14:16:25.643Z,34.11
2018-05-29T14:18:53.371Z,32.44
2018-05-29T14:21:20.769Z,31.66
2018-05-29T14:23:48.164Z,32.22
2018-05-29T14:26:15.548Z,32.68
2018-05-29T14:28:42.915Z,31.07
2018-05-29T14:31:10.312Z,31.78
2018-05-29T14:33:37.679Z,31.47
2018-05-29T14:36:05.064Z,32.61
2018-05-29T14:38:32.489Z,32.36
2018-05-29T14:40:59.826Z,33.46
2018-05-29T14:43:27.196Z,31.78
2018-05-29T14:45:54.589Z,30.58
2018-05-29T14:48:21.958Z,29.91
2018-05-29T14:50:49.327Z,29.45
2018-05-29T14:53:16.707Z,28.78
2018-05-29T14:55:44.100Z,29.85
2018-05-29T14:58:11.492Z,29.11
2018-05-29T15:00:38.875Z,29.40
2018-05-29T15:03:06.258Z,28.73
2018-05-29T15:05:33.635Z,29.57
2018-05-29T15:08:01.024Z,28.68
2018-05-29T15:10:28.911Z,28.74
2018-05-29T15:12:56.303Z,28.90
2018-05-29T15:15:23.703Z,29.08
2018-05-29T15:17:52.207Z,28.76
2018-05-29T15:20:19.577Z,28.41
2018-05-29T15:22:46.958Z,28.14
2018-05-29T15:25:14.337Z,28.24
2018-05-29T15:27:41.759Z,28.59
2018-05-29T15:30:09.135Z,28.64
2018-05-29T15:32:36.523Z,27.77
2018-05-29T15:35:03.899Z,28.24
2018-05-29T15:37:31.323Z,28.10
2018-05-29T15:39:58.683Z,27.75
2018-05-29T15:42:26.067Z,27.71
2018-05-29T15:44:53.435Z,27.89
2018-05-29T15:47:20.826Z,27.72
2018-05-29T15:49:48.207Z,27.79
2018-05-29T15:52:15.653Z,27.57
2018-05-29T15:54:42.962Z,28.21
2018-05-29T15:57:10.350Z,28.64
2018-05-29T15:59:37.740Z,28.96
2018-05-29T16:02:05.431Z,28.43
2018-05-29T16:04:32.829Z,28.72
2018-05-29T16:07:00.235Z,28.44
2018-05-29T16:09:27.626Z,29.13
2018-05-29T16:11:55.014Z,29.52
2018-05-29T16:14:22.473Z,28.40
2018-05-29T16:16:49.807Z,28.38
2018-05-29T16:19:17.199Z,28.58
2018-05-29T16:21:44.587Z,28.30
2018-05-29T16:24:11.970Z,27.96
2018-05-29T16:26:39.424Z,27.87
2018-05-29T16:29:06.753Z,28.26
2018-05-29T16:31:34.127Z,28.15
2018-05-29T16:34:01.505Z,27.73
2018-05-29T16:36:28.904Z,27.91
2018-05-29T16:38:56.321Z,27.98
2018-05-29T16:41:23.701Z,27.45
2018-05-29T16:43:51.091Z,27.07
2018-05-29T16:46:18.468Z,27.04
2018-05-29T16:48:45.875Z,27.22
2018-05-29T16:51:13.269Z,27.31
2018-05-29T16:53:40.648Z,27.52
2018-05-29T16:56:08.055Z,27.23
2018-05-29T16:58:35.413Z,27.08
2018-05-29T17:01:02.840Z,26.78
2018-05-29T17:03:30.214Z,26.11
2018-05-29T17:05:57.604Z,27.13
2018-05-29T17:08:24.992Z,27.37
2018-05-29T17:10:52.383Z,27.26
2018-05-29T17:13:19.770Z,26.92
2018-05-29T17:15:47.233Z,27.06
2018-05-29T17:18:14.615Z,26.30
2018-05-29T17:20:42.002Z,26.60
2018-05-29T17:23:09.391Z,26.60
2018-05-29T17:25:36.770Z,26.44
2018-05-29T17:28:04.159Z,26.37
2018-05-29T17:30:31.543Z,26.78
2018-05-29T17:32:59.203Z,26.41
2018-05-29T17:35:26.891Z,26.29
2018-05-29T17:37:54.281Z,25.97
2018-05-29T17:40:21.682Z,25.99
2018-05-29T17:42:49.054Z,26.45
2018-05-29T17:45:16.450Z,26.27
2018-05-29T17:47:43.831Z,26.09
2018-05-29T17:50:11.207Z,26.44
2018-05-29T17:52:39.502Z,26.37
2018-05-29T17:55:06.896Z,25.83
2018-05-29T17:57:34.282Z,25.66
2018-05-29T18:00:01.666Z,25.99
2018-05-29T18:02:29.257Z,25.70
2018-05-29T18:04:56.632Z,26.02
2018-05-29T18:07:24.174Z,25.83
2018-05-29T18:09:51.546Z,25.85
2018-05-29T18:12:18.940Z,26.28
2018-05-29T18:14:46.374Z,26.23
2018-05-29T18:17:13.752Z,26.01
2018-05-29T18:19:41.137Z,25.93
2018-05-29T18:22:08.556Z,26.30
2018-05-29T18:24:35.912Z,26.04
2018-05-29T18:27:03.295Z,26.59
2018-05-29T18:29:30.664Z,26.57
2018-05-29T18:31:58.183Z,26.15
2018-05-29T18:34:25.560Z,26.02
2018-05-29T18:36:52.956Z,25.87
2018-05-29T18:39:20.340Z,25.63
2018-05-29T18:41:47.724Z,25.61
2018-05-29T18:44:15.102Z,25.40
2018-05-29T18:46:42.495Z,25.29
2018-05-29T18:49:09.953Z,25.14
2018-05-29T18:51:37.302Z,25.36
2018-05-29T18:54:04.696Z,25.10
2018-05-29T18:56:32.073Z,25.23
2018-05-29T18:58:59.464Z,24.98
2018-05-29T19:01:26.851Z,25.31
2018-05-29T19:03:54.258Z,25.17
2018-05-29T19:06:21.660Z,25.38
2018-05-29T19:08:49.043Z,25.09
2018-05-29T19:11:16.446Z,24.98
2018-05-29T19:13:43.846Z,24.91
2018-05-29T19:16:11.571Z,24.75
2018-05-29T19:18:38.986Z,24.74
2018-05-29T19:21:06.363Z,24.78
2018-05-29T19:23:33.765Z,24.55
2018-05-29T19:26:01.143Z,24.88
2018-05-29T19:28:29.578Z,25.19
2018-05-29T19:30:57.061Z,24.83
2018-05-29T19:33:24.433Z,24.69
2018-05-29T19:35:51.798Z,24.80
2018-05-29T19:38:19.186Z,25.31
2018-05-29T19:40:46.586Z,25.52
2018-05-29T19:43:14.031Z,25.56
2018-05-29T19:45:41.425Z,25.48
2018-05-29T19:48:08.814Z,24.89
2018-05-29T19:50:36.251Z,24.78
2018-05-29T19:53:03.983Z,24.64
2018-05-29T19:55:31.373Z,24.77
2018-05-29T19:57:59.716Z,24.60
2018-05-29T20:00:27.776Z,24.71
2018-05-29T20:02:55.199Z,24.76
2018-05-29T20:05:22.584Z,24.64
2018-05-29T20:07:49.976Z,24.75
2018-05-29T20:10:17.355Z,24.62
2018-05-29T20:12:44.757Z,24.61
2018-05-29T20:15:12.131Z,24.43
2018-05-29T20:17:39.519Z,24.39
2018-05-29T20:20:06.943Z,24.49
2018-05-29T20:22:34.302Z,24.57
2018-05-29T20:25:01.679Z,24.64
2018-05-29T20:27:30.515Z,24.62
2018-05-29T20:29:57.913Z,24.69
2018-05-29T20:32:25.294Z,24.39
2018-05-29T20:34:52.675Z,24.46
2018-05-29T20:37:20.072Z,24.46
2018-05-29T20:39:47.471Z,24.29
2018-05-29T20:42:14.852Z,24.45
2018-05-29T20:44:42.237Z,24.46
2018-05-29T20:47:09.630Z,24.45
2018-05-29T20:49:37.024Z,24.22
2018-05-29T20:52:04.403Z,24.32
2018-05-29T20:54:31.789Z,24.08
2018-05-29T20:56:59.965Z,23.97
2018-05-29T20:59:27.356Z,24.16
2018-05-29T21:01:55.484Z,24.00
2018-05-29T21:04:22.875Z,24.03
2018-05-29T21:06:50.253Z,24.04
2018-05-29T21:09:17.637Z,24.31
2018-05-29T21:11:45.034Z,24.19
2018-05-29T21:14:12.420Z,24.00
2018-05-29T21:16:39.801Z,23.79
2018-05-29T21:19:07.183Z,23.82
2018-05-29T21:21:34.902Z,23.71
2018-05-29T21:24:02.292Z,23.70
2018-05-29T21:26:30.227Z,23.52
2018-05-29T21:28:57.605Z,23.52
2018-05-29T21:31:24.983Z,23.67
2018-05-29T21:33:52.393Z,23.68
2018-05-29T21:36:19.773Z,23.59
2018-05-29T21:38:47.154Z,23.66
2018-05-29T21:41:14.543Z,23.67
2018-05-29T21:43:41.923Z,23.72
2018-05-29T21:46:09.307Z,23.80
2018-05-29T21:48:36.705Z,23.55
2018-05-29T21:51:04.066Z,23.43
2018-05-29T21:53:31.506Z,23.31
2018-05-29T21:55:58.830Z,23.39
2018-05-29T21:58:26.217Z,23.30
2018-05-29T22:00:53.619Z,23.35
2018-05-29T22:03:21.004Z,23.31
2018-05-29T22:05:48.384Z,23.27
2018-05-29T22:08:15.762Z,23.22
2018-05-29T22:10:43.142Z,23.23
2018-05-29T22:13:10.522Z,23.10
2018-05-29T22:15:37.912Z,23.43
2018-05-29T22:18:05.291Z,23.37
2018-05-29T22:20:32.674Z,23.16
2018-05-29T22:23:00.408Z,23.06
2018-05-29T22:25:27.790Z,23.15
2018-05-29T22:27:56.150Z,23.09
2018-05-29T22:30:23.623Z,22.97
2018-05-29T22:32:50.961Z,23.05
2018-05-29T22:35:18.348Z,22.92
2018-05-29T22:37:45.736Z,22.89
2018-05-29T22:40:13.139Z,23.21
2018-05-29T22:42:40.540Z,23.06
2018-05-29T22:45:07.930Z,23.08
2018-05-29T22:47:35.533Z,22.95
2018-05-29T22:50:02.910Z,23.00
2018-05-29T22:52:30.598Z,22.93
2018-05-29T22:54:58.004Z,22.96
2018-05-29T22:57:25.385Z,23.03
2018-05-29T22:59:52.766Z,22.90
2018-05-29T23:02:20.155Z,22.87
2018-05-29T23:04:47.550Z,22.65
2018-05-29T23:07:14.929Z,22.57
2018-05-29T23:09:42.335Z,22.58
2018-05-29T23:12:09.727Z,22.50
2018-05-29T23:14:37.144Z,22.35
2018-05-29T23:17:04.539Z,22.25
2018-05-29T23:19:31.943Z,22.29
2018-05-29T23:21:59.331Z,22.24
2018-05-29T23:24:26.724Z,22.32
2018-05-29T23:26:54.127Z,22.28
2018-05-29T23:29:21.519Z,22.28
2018-05-29T23:31:48.905Z,22.33
2018-05-29T23:34:16.300Z,22.30
2018-05-29T23:36:43.691Z,22.34
2018-05-29T23:39:11.076Z,22.44
2018-05-29T23:41:38.474Z,22.10
2018-05-29T23:44:05.867Z,22.31
2018-05-29T23:46:33.259Z,22.31
2018-05-29T23:49:00.967Z,22.02
2018-05-29T23:51:28.323Z,22.11
2018-05-29T23:53:55.725Z,22.09
2018-05-29T23:56:23.105Z,22.09
2018-05-29T23:58:50.724Z,22.08
